sensor_id;sensor_type;location;lat;lon;timestamp;P1;durP1;ratioP1;P2;durP2;ratioP2
16593;SDS011;8410;52.532;13.336;2024-03-07T00:00:17;106.70;;;49.33;;
16593;SDS011;8410;52.532;13.336;2024-03-07T00:02:46;112.10;;;49.80;;
16593;SDS011;8410;52.532;13.336;2024-03-07T00:05:15;120.03;;;52.03;;
16593;SDS011;8410;52.532;13.336;2024-03-07T00:07:43;113.60;;;45.63;;
16593;SDS011;8410;52.532;13.336;2024-03-07T00:10:11;110.27;;;46.37;;
16593;SDS011;8410;52.532;13.336;2024-03-07T00:12:40;112.10;;;51.67;;
16593;SDS011;8410;52.532;13.336;2024-03-07T00:15:08;104.83;;;46.90;;
16593;SDS011;8410;52.532;13.336;2024-03-07T00:17:37;102.63;;;41.57;;
16593;SDS011;8410;52.532;13.336;2024-03-07T00:20:06;106.97;;;47.13;;
16593;SDS011;8410;52.532;13.336;2024-03-07T00:22:36;107.63;;;48.30;;
16593;SDS011;8410;52.532;13.336;2024-03-07T00:25:04;109.20;;;46.63;;
16593;SDS011;8410;52.532;13.336;2024-03-07T00:27:33;109.43;;;44.97;;
16593;SDS011;8410;52.532;13.336;2024-03-07T00:30:03;88.60;;;41.73;;
16593;SDS011;8410;52.532;13.336;2024-03-07T00:32:31;114.23;;;50.60;;
16593;SDS011;8410;52.532;13.336;2024-03-07T00:35:02;104.77;;;44.70;;
16593;SDS011;8410;52.532;13.336;2024-03-07T00:37:30;120.43;;;57.47;;
16593;SDS011;8410;52.532;13.336;2024-03-07T00:39:58;108.63;;;49.07;;
16593;SDS011;8410;52.532;13.336;2024-03-07T00:42:25;115.60;;;51.70;;
16593;SDS011;8410;52.532;13.336;2024-03-07T00:44:53;114.70;;;53.00;;
16593;SDS011;8410;52.532;13.336;2024-03-07T00:47:22;107.30;;;45.43;;
16593;SDS011;8410;52.532;13.336;2024-03-07T00:49:50;100.90;;;43.37;;
16593;SDS011;8410;52.532;13.336;2024-03-07T00:52:17;111.17;;;52.43;;
16593;SDS011;8410;52.532;13.336;2024-03-07T00:54:45;104.63;;;46.43;;
16593;SDS011;8410;52.532;13.336;2024-03-07T00:57:12;102.73;;;48.90;;
16593;SDS011;8410;52.532;13.336;2024-03-07T00:59:40;101.33;;;44.13;;
16593;SDS011;8410;52.532;13.336;2024-03-07T01:02:08;107.20;;;47.23;;
16593;SDS011;8410;52.532;13.336;2024-03-07T01:04:37;113.17;;;46.57;;
16593;SDS011;8410;52.532;13.336;2024-03-07T01:07:04;110.37;;;52.00;;
16593;SDS011;8410;52.532;13.336;2024-03-07T01:09:32;106.53;;;50.40;;
16593;SDS011;8410;52.532;13.336;2024-03-07T01:12:01;112.23;;;50.73;;
16593;SDS011;8410;52.532;13.336;2024-03-07T01:14:31;103.57;;;45.47;;
16593;SDS011;8410;52.532;13.336;2024-03-07T01:16:59;108.90;;;47.83;;
16593;SDS011;8410;52.532;13.336;2024-03-07T01:19:27;108.60;;;50.97;;
16593;SDS011;8410;52.532;13.336;2024-03-07T01:21:55;110.07;;;50.13;;
16593;SDS011;8410;52.532;13.336;2024-03-07T01:24:23;107.90;;;48.47;;
16593;SDS011;8410;52.532;13.336;2024-03-07T01:26:51;108.73;;;46.30;;
16593;SDS011;8410;52.532;13.336;2024-03-07T01:29:19;107.70;;;53.27;;
16593;SDS011;8410;52.532;13.336;2024-03-07T01:31:47;86.53;;;41.63;;
16593;SDS011;8410;52.532;13.336;2024-03-07T01:34:15;85.43;;;40.87;;
16593;SDS011;8410;52.532;13.336;2024-03-07T01:36:42;100.87;;;46.47;;
16593;SDS011;8410;52.532;13.336;2024-03-07T01:39:12;88.73;;;42.17;;
16593;SDS011;8410;52.532;13.336;2024-03-07T01:41:40;84.63;;;41.77;;
16593;SDS011;8410;52.532;13.336;2024-03-07T01:44:07;75.80;;;37.93;;
16593;SDS011;8410;52.532;13.336;2024-03-07T01:46:35;84.00;;;43.57;;
16593;SDS011;8410;52.532;13.336;2024-03-07T01:49:03;82.47;;;42.73;;
16593;SDS011;8410;52.532;13.336;2024-03-07T01:51:33;106.53;;;46.83;;
16593;SDS011;8410;52.532;13.336;2024-03-07T01:54:01;84.03;;;42.87;;
16593;SDS011;8410;52.532;13.336;2024-03-07T01:56:31;82.33;;;39.53;;
16593;SDS011;8410;52.532;13.336;2024-03-07T01:58:59;88.07;;;48.13;;
16593;SDS011;8410;52.532;13.336;2024-03-07T02:01:28;88.87;;;46.60;;
16593;SDS011;8410;52.532;13.336;2024-03-07T02:03:56;88.00;;;42.13;;
16593;SDS011;8410;52.532;13.336;2024-03-07T02:06:23;72.50;;;39.40;;
16593;SDS011;8410;52.532;13.336;2024-03-07T02:08:52;72.80;;;36.70;;
16593;SDS011;8410;52.532;13.336;2024-03-07T02:11:20;82.53;;;43.50;;
16593;SDS011;8410;52.532;13.336;2024-03-07T02:13:51;71.07;;;36.57;;
16593;SDS011;8410;52.532;13.336;2024-03-07T02:16:19;76.77;;;40.73;;
16593;SDS011;8410;52.532;13.336;2024-03-07T02:18:47;80.73;;;40.40;;
16593;SDS011;8410;52.532;13.336;2024-03-07T02:21:17;82.50;;;43.47;;
16593;SDS011;8410;52.532;13.336;2024-03-07T02:23:44;86.77;;;44.57;;
16593;SDS011;8410;52.532;13.336;2024-03-07T02:26:12;86.90;;;45.83;;
16593;SDS011;8410;52.532;13.336;2024-03-07T02:28:40;94.10;;;50.57;;
16593;SDS011;8410;52.532;13.336;2024-03-07T02:31:07;88.80;;;42.53;;
16593;SDS011;8410;52.532;13.336;2024-03-07T02:33:35;99.27;;;45.80;;
16593;SDS011;8410;52.532;13.336;2024-03-07T02:36:03;100.97;;;49.80;;
16593;SDS011;8410;52.532;13.336;2024-03-07T02:38:32;85.63;;;42.27;;
16593;SDS011;8410;52.532;13.336;2024-03-07T02:41:00;102.47;;;52.13;;
16593;SDS011;8410;52.532;13.336;2024-03-07T02:43:28;85.93;;;39.80;;
16593;SDS011;8410;52.532;13.336;2024-03-07T02:45:55;87.90;;;43.70;;
16593;SDS011;8410;52.532;13.336;2024-03-07T02:48:23;95.97;;;47.93;;
16593;SDS011;8410;52.532;13.336;2024-03-07T02:50:51;91.67;;;51.57;;
16593;SDS011;8410;52.532;13.336;2024-03-07T02:53:18;89.20;;;47.07;;
16593;SDS011;8410;52.532;13.336;2024-03-07T02:55:47;107.07;;;53.30;;
16593;SDS011;8410;52.532;13.336;2024-03-07T02:58:15;97.67;;;50.73;;
16593;SDS011;8410;52.532;13.336;2024-03-07T03:00:43;105.70;;;53.63;;
16593;SDS011;8410;52.532;13.336;2024-03-07T03:03:11;102.63;;;54.57;;
16593;SDS011;8410;52.532;13.336;2024-03-07T03:05:38;90.07;;;47.10;;
16593;SDS011;8410;52.532;13.336;2024-03-07T03:08:05;86.70;;;49.40;;
16593;SDS011;8410;52.532;13.336;2024-03-07T03:10:33;93.83;;;47.80;;
16593;SDS011;8410;52.532;13.336;2024-03-07T03:13:02;98.60;;;49.27;;
16593;SDS011;8410;52.532;13.336;2024-03-07T03:15:30;98.33;;;49.00;;
16593;SDS011;8410;52.532;13.336;2024-03-07T03:17:58;92.83;;;48.27;;
16593;SDS011;8410;52.532;13.336;2024-03-07T03:20:27;90.67;;;45.63;;
16593;SDS011;8410;52.532;13.336;2024-03-07T03:23:00;98.10;;;54.23;;
16593;SDS011;8410;52.532;13.336;2024-03-07T03:25:45;91.53;;;49.50;;
16593;SDS011;8410;52.532;13.336;2024-03-07T03:28:16;97.47;;;49.73;;
16593;SDS011;8410;52.532;13.336;2024-03-07T03:30:46;97.23;;;50.47;;
16593;SDS011;8410;52.532;13.336;2024-03-07T03:33:14;111.67;;;54.20;;
16593;SDS011;8410;52.532;13.336;2024-03-07T03:35:43;96.60;;;49.93;;
16593;SDS011;8410;52.532;13.336;2024-03-07T03:38:11;96.93;;;53.10;;
16593;SDS011;8410;52.532;13.336;2024-03-07T03:40:38;99.67;;;48.37;;
16593;SDS011;8410;52.532;13.336;2024-03-07T03:43:06;88.00;;;49.33;;
16593;SDS011;8410;52.532;13.336;2024-03-07T03:45:35;95.70;;;52.17;;
16593;SDS011;8410;52.532;13.336;2024-03-07T03:48:03;102.47;;;52.63;;
16593;SDS011;8410;52.532;13.336;2024-03-07T03:50:32;96.70;;;48.07;;
16593;SDS011;8410;52.532;13.336;2024-03-07T03:52:59;104.30;;;52.13;;
16593;SDS011;8410;52.532;13.336;2024-03-07T03:55:28;95.13;;;52.57;;
16593;SDS011;8410;52.532;13.336;2024-03-07T03:57:55;98.00;;;52.87;;
16593;SDS011;8410;52.532;13.336;2024-03-07T04:00:23;97.87;;;53.23;;
16593;SDS011;8410;52.532;13.336;2024-03-07T04:02:52;93.30;;;50.57;;
16593;SDS011;8410;52.532;13.336;2024-03-07T04:05:20;102.23;;;52.73;;
16593;SDS011;8410;52.532;13.336;2024-03-07T04:07:48;84.73;;;43.57;;
16593;SDS011;8410;52.532;13.336;2024-03-07T04:10:16;69.67;;;36.00;;
16593;SDS011;8410;52.532;13.336;2024-03-07T04:12:44;80.70;;;42.17;;
16593;SDS011;8410;52.532;13.336;2024-03-07T04:15:13;78.90;;;44.03;;
16593;SDS011;8410;52.532;13.336;2024-03-07T04:17:44;89.80;;;48.93;;
16593;SDS011;8410;52.532;13.336;2024-03-07T04:20:15;83.30;;;49.03;;
16593;SDS011;8410;52.532;13.336;2024-03-07T04:22:45;81.10;;;48.43;;
16593;SDS011;8410;52.532;13.336;2024-03-07T04:25:12;80.63;;;44.93;;
16593;SDS011;8410;52.532;13.336;2024-03-07T04:27:41;74.03;;;41.37;;
16593;SDS011;8410;52.532;13.336;2024-03-07T04:30:09;75.70;;;43.43;;
16593;SDS011;8410;52.532;13.336;2024-03-07T04:32:37;71.73;;;46.43;;
16593;SDS011;8410;52.532;13.336;2024-03-07T04:35:06;74.27;;;45.77;;
16593;SDS011;8410;52.532;13.336;2024-03-07T04:37:36;69.03;;;41.13;;
16593;SDS011;8410;52.532;13.336;2024-03-07T04:40:04;65.23;;;42.80;;
16593;SDS011;8410;52.532;13.336;2024-03-07T04:42:41;69.70;;;41.63;;
16593;SDS011;8410;52.532;13.336;2024-03-07T04:45:10;77.57;;;45.57;;
16593;SDS011;8410;52.532;13.336;2024-03-07T04:47:39;71.90;;;43.33;;
16593;SDS011;8410;52.532;13.336;2024-03-07T04:50:08;73.40;;;45.37;;
16593;SDS011;8410;52.532;13.336;2024-03-07T04:52:38;62.43;;;40.63;;
16593;SDS011;8410;52.532;13.336;2024-03-07T04:55:07;65.27;;;45.63;;
16593;SDS011;8410;52.532;13.336;2024-03-07T04:57:36;61.37;;;39.27;;
16593;SDS011;8410;52.532;13.336;2024-03-07T05:00:06;60.47;;;37.63;;
16593;SDS011;8410;52.532;13.336;2024-03-07T05:02:39;65.87;;;38.53;;
16593;SDS011;8410;52.532;13.336;2024-03-07T05:05:07;62.07;;;40.00;;
16593;SDS011;8410;52.532;13.336;2024-03-07T05:07:35;65.50;;;46.63;;
16593;SDS011;8410;52.532;13.336;2024-03-07T05:10:04;56.90;;;37.17;;
16593;SDS011;8410;52.532;13.336;2024-03-07T05:12:33;62.57;;;41.53;;
16593;SDS011;8410;52.532;13.336;2024-03-07T05:15:01;57.13;;;38.63;;
16593;SDS011;8410;52.532;13.336;2024-03-07T05:17:30;62.17;;;39.97;;
16593;SDS011;8410;52.532;13.336;2024-03-07T05:20:00;58.97;;;40.80;;
16593;SDS011;8410;52.532;13.336;2024-03-07T05:22:29;56.97;;;37.47;;
16593;SDS011;8410;52.532;13.336;2024-03-07T05:24:57;55.93;;;37.23;;
16593;SDS011;8410;52.532;13.336;2024-03-07T05:27:26;58.17;;;39.60;;
16593;SDS011;8410;52.532;13.336;2024-03-07T05:29:56;63.23;;;40.73;;
16593;SDS011;8410;52.532;13.336;2024-03-07T05:32:24;65.60;;;38.23;;
16593;SDS011;8410;52.532;13.336;2024-03-07T05:34:53;59.00;;;39.27;;
16593;SDS011;8410;52.532;13.336;2024-03-07T05:37:21;54.90;;;38.53;;
16593;SDS011;8410;52.532;13.336;2024-03-07T05:39:50;58.10;;;43.43;;
16593;SDS011;8410;52.532;13.336;2024-03-07T05:42:19;57.22;;;41.63;;
16593;SDS011;8410;52.532;13.336;2024-03-07T05:44:48;60.43;;;37.57;;
16593;SDS011;8410;52.532;13.336;2024-03-07T05:47:16;56.90;;;37.67;;
16593;SDS011;8410;52.532;13.336;2024-03-07T05:49:44;56.37;;;39.63;;
16593;SDS011;8410;52.532;13.336;2024-03-07T05:52:11;50.47;;;36.93;;
16593;SDS011;8410;52.532;13.336;2024-03-07T05:54:39;57.83;;;39.50;;
16593;SDS011;8410;52.532;13.336;2024-03-07T05:57:06;51.60;;;35.47;;
16593;SDS011;8410;52.532;13.336;2024-03-07T05:59:34;61.37;;;42.20;;
16593;SDS011;8410;52.532;13.336;2024-03-07T06:02:03;58.43;;;41.57;;
16593;SDS011;8410;52.532;13.336;2024-03-07T06:04:31;56.73;;;38.03;;
16593;SDS011;8410;52.532;13.336;2024-03-07T06:07:00;54.17;;;37.10;;
16593;SDS011;8410;52.532;13.336;2024-03-07T06:09:28;59.17;;;40.20;;
16593;SDS011;8410;52.532;13.336;2024-03-07T06:11:55;57.07;;;40.03;;
16593;SDS011;8410;52.532;13.336;2024-03-07T06:14:23;67.03;;;47.83;;
16593;SDS011;8410;52.532;13.336;2024-03-07T06:16:51;60.57;;;39.50;;
16593;SDS011;8410;52.532;13.336;2024-03-07T06:19:20;68.47;;;46.17;;
16593;SDS011;8410;52.532;13.336;2024-03-07T06:21:48;52.63;;;34.90;;
16593;SDS011;8410;52.532;13.336;2024-03-07T06:24:15;50.33;;;33.97;;
16593;SDS011;8410;52.532;13.336;2024-03-07T06:26:45;54.97;;;36.13;;
16593;SDS011;8410;52.532;13.336;2024-03-07T06:29:15;47.07;;;31.63;;
16593;SDS011;8410;52.532;13.336;2024-03-07T06:31:45;47.33;;;32.80;;
16593;SDS011;8410;52.532;13.336;2024-03-07T06:34:13;52.23;;;36.37;;
16593;SDS011;8410;52.532;13.336;2024-03-07T06:36:42;45.83;;;34.53;;
16593;SDS011;8410;52.532;13.336;2024-03-07T06:39:10;47.37;;;32.97;;
16593;SDS011;8410;52.532;13.336;2024-03-07T06:41:38;41.80;;;28.73;;
16593;SDS011;8410;52.532;13.336;2024-03-07T06:44:07;43.87;;;30.37;;
16593;SDS011;8410;52.532;13.336;2024-03-07T06:46:36;42.60;;;27.50;;
16593;SDS011;8410;52.532;13.336;2024-03-07T06:49:04;39.30;;;31.77;;
16593;SDS011;8410;52.532;13.336;2024-03-07T06:51:37;36.43;;;25.67;;
16593;SDS011;8410;52.532;13.336;2024-03-07T06:54:07;38.63;;;28.10;;
16593;SDS011;8410;52.532;13.336;2024-03-07T06:56:35;39.87;;;28.90;;
16593;SDS011;8410;52.532;13.336;2024-03-07T06:59:03;38.80;;;25.10;;
16593;SDS011;8410;52.532;13.336;2024-03-07T07:01:31;39.97;;;25.47;;
16593;SDS011;8410;52.532;13.336;2024-03-07T07:04:00;33.57;;;25.97;;
16593;SDS011;8410;52.532;13.336;2024-03-07T07:06:30;35.23;;;24.00;;
16593;SDS011;8410;52.532;13.336;2024-03-07T07:08:58;39.10;;;24.73;;
16593;SDS011;8410;52.532;13.336;2024-03-07T07:11:30;32.20;;;26.37;;
16593;SDS011;8410;52.532;13.336;2024-03-07T07:14:01;28.73;;;20.43;;
16593;SDS011;8410;52.532;13.336;2024-03-07T07:16:28;34.00;;;24.77;;
16593;SDS011;8410;52.532;13.336;2024-03-07T07:18:57;37.90;;;27.73;;
16593;SDS011;8410;52.532;13.336;2024-03-07T07:21:24;28.90;;;21.73;;
16593;SDS011;8410;52.532;13.336;2024-03-07T07:23:52;31.50;;;22.87;;
16593;SDS011;8410;52.532;13.336;2024-03-07T07:26:20;33.70;;;25.10;;
16593;SDS011;8410;52.532;13.336;2024-03-07T07:28:49;36.73;;;26.83;;
16593;SDS011;8410;52.532;13.336;2024-03-07T07:31:20;35.37;;;25.97;;
16593;SDS011;8410;52.532;13.336;2024-03-07T07:33:47;36.00;;;24.83;;
16593;SDS011;8410;52.532;13.336;2024-03-07T07:36:15;32.40;;;24.20;;
16593;SDS011;8410;52.532;13.336;2024-03-07T07:38:44;33.03;;;23.53;;
16593;SDS011;8410;52.532;13.336;2024-03-07T07:41:11;27.00;;;18.87;;
16593;SDS011;8410;52.532;13.336;2024-03-07T07:43:39;31.50;;;20.73;;
16593;SDS011;8410;52.532;13.336;2024-03-07T07:46:10;34.83;;;23.30;;
16593;SDS011;8410;52.532;13.336;2024-03-07T07:48:38;30.10;;;19.90;;
16593;SDS011;8410;52.532;13.336;2024-03-07T07:51:05;28.13;;;19.43;;
16593;SDS011;8410;52.532;13.336;2024-03-07T07:53:33;29.57;;;20.50;;
16593;SDS011;8410;52.532;13.336;2024-03-07T07:56:01;27.37;;;19.63;;
16593;SDS011;8410;52.532;13.336;2024-03-07T07:58:29;30.80;;;22.00;;
16593;SDS011;8410;52.532;13.336;2024-03-07T08:00:56;31.40;;;21.20;;
16593;SDS011;8410;52.532;13.336;2024-03-07T08:03:25;29.03;;;20.33;;
16593;SDS011;8410;52.532;13.336;2024-03-07T08:05:53;30.60;;;22.03;;
16593;SDS011;8410;52.532;13.336;2024-03-07T08:08:21;33.37;;;21.57;;
16593;SDS011;8410;52.532;13.336;2024-03-07T08:10:49;30.37;;;19.00;;
16593;SDS011;8410;52.532;13.336;2024-03-07T08:13:16;34.17;;;24.10;;
16593;SDS011;8410;52.532;13.336;2024-03-07T08:15:44;23.27;;;17.43;;
16593;SDS011;8410;52.532;13.336;2024-03-07T08:18:12;19.30;;;16.07;;
16593;SDS011;8410;52.532;13.336;2024-03-07T08:20:41;25.80;;;19.73;;
16593;SDS011;8410;52.532;13.336;2024-03-07T08:23:10;27.93;;;19.03;;
16593;SDS011;8410;52.532;13.336;2024-03-07T08:25:39;29.10;;;23.03;;
16593;SDS011;8410;52.532;13.336;2024-03-07T08:28:07;28.20;;;21.57;;
16593;SDS011;8410;52.532;13.336;2024-03-07T08:30:35;29.13;;;21.30;;
16593;SDS011;8410;52.532;13.336;2024-03-07T08:33:03;28.93;;;20.47;;
16593;SDS011;8410;52.532;13.336;2024-03-07T08:35:33;25.63;;;17.00;;
16593;SDS011;8410;52.532;13.336;2024-03-07T08:38:03;20.73;;;15.43;;
16593;SDS011;8410;52.532;13.336;2024-03-07T08:40:31;22.33;;;17.60;;
16593;SDS011;8410;52.532;13.336;2024-03-07T08:43:01;24.20;;;18.37;;
16593;SDS011;8410;52.532;13.336;2024-03-07T08:45:29;22.83;;;16.67;;
16593;SDS011;8410;52.532;13.336;2024-03-07T08:48:01;22.67;;;16.80;;
16593;SDS011;8410;52.532;13.336;2024-03-07T08:50:30;23.27;;;15.83;;
16593;SDS011;8410;52.532;13.336;2024-03-07T08:53:02;25.87;;;17.70;;
16593;SDS011;8410;52.532;13.336;2024-03-07T08:55:31;24.20;;;16.10;;
16593;SDS011;8410;52.532;13.336;2024-03-07T08:58:02;21.67;;;15.83;;
16593;SDS011;8410;52.532;13.336;2024-03-07T09:00:29;22.23;;;16.77;;
16593;SDS011;8410;52.532;13.336;2024-03-07T09:03:01;20.17;;;15.73;;
16593;SDS011;8410;52.532;13.336;2024-03-07T09:05:30;17.87;;;13.50;;
16593;SDS011;8410;52.532;13.336;2024-03-07T09:08:00;20.77;;;17.53;;
16593;SDS011;8410;52.532;13.336;2024-03-07T09:10:29;19.53;;;14.70;;
16593;SDS011;8410;52.532;13.336;2024-03-07T09:12:57;19.37;;;14.43;;
16593;SDS011;8410;52.532;13.336;2024-03-07T09:15:25;15.83;;;13.07;;
16593;SDS011;8410;52.532;13.336;2024-03-07T09:17:54;16.37;;;12.93;;
16593;SDS011;8410;52.532;13.336;2024-03-07T09:20:22;15.70;;;12.77;;
16593;SDS011;8410;52.532;13.336;2024-03-07T09:22:50;19.77;;;14.07;;
16593;SDS011;8410;52.532;13.336;2024-03-07T09:25:21;19.53;;;12.93;;
16593;SDS011;8410;52.532;13.336;2024-03-07T09:27:52;15.57;;;12.33;;
16593;SDS011;8410;52.532;13.336;2024-03-07T09:30:20;17.27;;;12.73;;
16593;SDS011;8410;52.532;13.336;2024-03-07T09:32:51;17.73;;;13.37;;
16593;SDS011;8410;52.532;13.336;2024-03-07T09:35:21;15.70;;;13.53;;
16593;SDS011;8410;52.532;13.336;2024-03-07T09:37:49;15.07;;;12.53;;
16593;SDS011;8410;52.532;13.336;2024-03-07T09:40:17;15.57;;;12.63;;
16593;SDS011;8410;52.532;13.336;2024-03-07T09:42:52;14.67;;;12.13;;
16593;SDS011;8410;52.532;13.336;2024-03-07T09:45:22;17.20;;;12.40;;
16593;SDS011;8410;52.532;13.336;2024-03-07T09:47:55;17.33;;;14.37;;
16593;SDS011;8410;52.532;13.336;2024-03-07T09:50:24;15.33;;;11.60;;
16593;SDS011;8410;52.532;13.336;2024-03-07T09:52:54;14.37;;;12.83;;
16593;SDS011;8410;52.532;13.336;2024-03-07T09:55:23;17.60;;;13.17;;
16593;SDS011;8410;52.532;13.336;2024-03-07T09:57:54;15.40;;;12.63;;
16593;SDS011;8410;52.532;13.336;2024-03-07T10:00:24;15.30;;;11.80;;
16593;SDS011;8410;52.532;13.336;2024-03-07T10:02:56;18.80;;;13.23;;
16593;SDS011;8410;52.532;13.336;2024-03-07T10:05:26;18.17;;;13.37;;
16593;SDS011;8410;52.532;13.336;2024-03-07T10:07:56;15.60;;;12.40;;
16593;SDS011;8410;52.532;13.336;2024-03-07T10:10:23;12.43;;;10.00;;
16593;SDS011;8410;52.532;13.336;2024-03-07T10:12:52;16.03;;;11.73;;
16593;SDS011;8410;52.532;13.336;2024-03-07T10:15:21;13.17;;;10.30;;
16593;SDS011;8410;52.532;13.336;2024-03-07T10:17:54;13.40;;;9.90;;
16593;SDS011;8410;52.532;13.336;2024-03-07T10:20:22;14.53;;;11.13;;
16593;SDS011;8410;52.532;13.336;2024-03-07T10:22:51;15.17;;;12.67;;
16593;SDS011;8410;52.532;13.336;2024-03-07T10:25:18;17.50;;;12.23;;
16593;SDS011;8410;52.532;13.336;2024-03-07T10:27:48;17.43;;;13.60;;
16593;SDS011;8410;52.532;13.336;2024-03-07T10:30:16;16.20;;;10.90;;
16593;SDS011;8410;52.532;13.336;2024-03-07T10:32:48;13.40;;;11.07;;
16593;SDS011;8410;52.532;13.336;2024-03-07T10:35:21;13.70;;;10.23;;
16593;SDS011;8410;52.532;13.336;2024-03-07T10:37:51;15.97;;;9.90;;
16593;SDS011;8410;52.532;13.336;2024-03-07T10:40:20;11.87;;;10.13;;
16593;SDS011;8410;52.532;13.336;2024-03-07T10:42:49;13.27;;;10.53;;
16593;SDS011;8410;52.532;13.336;2024-03-07T10:45:19;16.87;;;12.50;;
16593;SDS011;8410;52.532;13.336;2024-03-07T10:47:52;14.00;;;11.65;;
16593;SDS011;8410;52.532;13.336;2024-03-07T10:50:28;15.80;;;10.27;;
16593;SDS011;8410;52.532;13.336;2024-03-07T10:53:12;12.30;;;10.07;;
16593;SDS011;8410;52.532;13.336;2024-03-07T10:55:49;18.13;;;11.07;;
16593;SDS011;8410;52.532;13.336;2024-03-07T10:58:27;12.83;;;10.47;;
16593;SDS011;8410;52.532;13.336;2024-03-07T11:01:04;13.93;;;11.50;;
16593;SDS011;8410;52.532;13.336;2024-03-07T11:03:34;15.23;;;10.90;;
16593;SDS011;8410;52.532;13.336;2024-03-07T11:06:02;14.47;;;10.93;;
16593;SDS011;8410;52.532;13.336;2024-03-07T11:08:33;19.10;;;12.60;;
16593;SDS011;8410;52.532;13.336;2024-03-07T11:11:01;14.43;;;10.47;;
16593;SDS011;8410;52.532;13.336;2024-03-07T11:13:29;16.97;;;11.53;;
16593;SDS011;8410;52.532;13.336;2024-03-07T11:15:57;17.33;;;11.20;;
16593;SDS011;8410;52.532;13.336;2024-03-07T11:18:26;14.90;;;11.30;;
16593;SDS011;8410;52.532;13.336;2024-03-07T11:20:56;13.27;;;10.13;;
16593;SDS011;8410;52.532;13.336;2024-03-07T11:23:24;17.23;;;12.43;;
16593;SDS011;8410;52.532;13.336;2024-03-07T11:25:55;15.67;;;9.67;;
16593;SDS011;8410;52.532;13.336;2024-03-07T11:28:29;12.37;;;9.47;;
16593;SDS011;8410;52.532;13.336;2024-03-07T11:31:07;12.97;;;9.47;;
16593;SDS011;8410;52.532;13.336;2024-03-07T11:33:36;13.17;;;11.00;;
16593;SDS011;8410;52.532;13.336;2024-03-07T11:36:08;15.70;;;10.33;;
16593;SDS011;8410;52.532;13.336;2024-03-07T11:38:38;13.63;;;10.33;;
16593;SDS011;8410;52.532;13.336;2024-03-07T11:41:11;13.57;;;10.33;;
16593;SDS011;8410;52.532;13.336;2024-03-07T11:43:40;16.27;;;11.33;;
16593;SDS011;8410;52.532;13.336;2024-03-07T11:46:08;14.47;;;10.97;;
16593;SDS011;8410;52.532;13.336;2024-03-07T11:48:41;13.33;;;11.20;;
16593;SDS011;8410;52.532;13.336;2024-03-07T11:51:13;14.77;;;11.20;;
16593;SDS011;8410;52.532;13.336;2024-03-07T11:53:42;16.27;;;11.17;;
16593;SDS011;8410;52.532;13.336;2024-03-07T11:56:14;18.90;;;11.77;;
16593;SDS011;8410;52.532;13.336;2024-03-07T11:58:44;17.37;;;11.87;;
16593;SDS011;8410;52.532;13.336;2024-03-07T12:01:18;14.03;;;11.03;;
16593;SDS011;8410;52.532;13.336;2024-03-07T12:03:52;15.50;;;13.70;;
16593;SDS011;8410;52.532;13.336;2024-03-07T12:06:24;19.10;;;11.80;;
16593;SDS011;8410;52.532;13.336;2024-03-07T12:08:52;14.43;;;11.70;;
16593;SDS011;8410;52.532;13.336;2024-03-07T12:11:20;14.17;;;11.53;;
16593;SDS011;8410;52.532;13.336;2024-03-07T12:13:47;15.23;;;12.83;;
16593;SDS011;8410;52.532;13.336;2024-03-07T12:16:16;14.83;;;11.13;;
16593;SDS011;8410;52.532;13.336;2024-03-07T12:18:43;12.83;;;11.13;;
16593;SDS011;8410;52.532;13.336;2024-03-07T12:21:11;13.47;;;10.00;;
16593;SDS011;8410;52.532;13.336;2024-03-07T12:23:40;13.20;;;10.37;;
16593;SDS011;8410;52.532;13.336;2024-03-07T12:26:08;15.03;;;11.93;;
16593;SDS011;8410;52.532;13.336;2024-03-07T12:28:41;14.60;;;12.97;;
16593;SDS011;8410;52.532;13.336;2024-03-07T12:31:09;16.13;;;12.70;;
16593;SDS011;8410;52.532;13.336;2024-03-07T12:33:43;13.80;;;12.13;;
16593;SDS011;8410;52.532;13.336;2024-03-07T12:36:13;15.83;;;11.40;;
16593;SDS011;8410;52.532;13.336;2024-03-07T12:38:46;13.30;;;11.90;;
16593;SDS011;8410;52.532;13.336;2024-03-07T12:41:14;15.93;;;14.23;;
16593;SDS011;8410;52.532;13.336;2024-03-07T12:43:43;14.83;;;12.93;;
16593;SDS011;8410;52.532;13.336;2024-03-07T12:46:13;14.13;;;11.93;;
16593;SDS011;8410;52.532;13.336;2024-03-07T12:48:42;14.77;;;11.20;;
16593;SDS011;8410;52.532;13.336;2024-03-07T12:51:12;14.33;;;11.50;;
16593;SDS011;8410;52.532;13.336;2024-03-07T12:53:45;13.93;;;10.57;;
16593;SDS011;8410;52.532;13.336;2024-03-07T12:56:14;14.77;;;12.43;;
16593;SDS011;8410;52.532;13.336;2024-03-07T12:58:46;15.73;;;11.93;;
16593;SDS011;8410;52.532;13.336;2024-03-07T13:01:14;17.13;;;13.40;;
16593;SDS011;8410;52.532;13.336;2024-03-07T13:03:44;14.33;;;12.73;;
16593;SDS011;8410;52.532;13.336;2024-03-07T13:06:14;18.47;;;13.03;;
16593;SDS011;8410;52.532;13.336;2024-03-07T13:08:47;15.53;;;12.33;;
16593;SDS011;8410;52.532;13.336;2024-03-07T13:11:14;15.80;;;11.37;;
16593;SDS011;8410;52.532;13.336;2024-03-07T13:13:42;14.27;;;12.53;;
16593;SDS011;8410;52.532;13.336;2024-03-07T13:16:09;18.20;;;14.50;;
16593;SDS011;8410;52.532;13.336;2024-03-07T13:18:37;15.03;;;12.13;;
16593;SDS011;8410;52.532;13.336;2024-03-07T13:21:06;17.03;;;14.57;;
16593;SDS011;8410;52.532;13.336;2024-03-07T13:23:37;17.90;;;13.80;;
16593;SDS011;8410;52.532;13.336;2024-03-07T13:26:07;14.43;;;12.50;;
16593;SDS011;8410;52.532;13.336;2024-03-07T13:28:43;14.70;;;12.93;;
16593;SDS011;8410;52.532;13.336;2024-03-07T13:31:11;19.50;;;13.63;;
16593;SDS011;8410;52.532;13.336;2024-03-07T13:33:39;14.83;;;13.23;;
16593;SDS011;8410;52.532;13.336;2024-03-07T13:36:07;14.27;;;12.10;;
16593;SDS011;8410;52.532;13.336;2024-03-07T13:38:35;15.77;;;12.37;;
16593;SDS011;8410;52.532;13.336;2024-03-07T13:41:04;15.73;;;13.00;;
16593;SDS011;8410;52.532;13.336;2024-03-07T13:43:32;17.13;;;13.83;;
16593;SDS011;8410;52.532;13.336;2024-03-07T13:46:00;15.67;;;12.83;;
16593;SDS011;8410;52.532;13.336;2024-03-07T13:48:28;16.70;;;12.70;;
16593;SDS011;8410;52.532;13.336;2024-03-07T13:50:55;15.07;;;12.50;;
16593;SDS011;8410;52.532;13.336;2024-03-07T13:53:26;18.20;;;14.23;;
16593;SDS011;8410;52.532;13.336;2024-03-07T13:56:11;15.37;;;13.77;;
16593;SDS011;8410;52.532;13.336;2024-03-07T13:59:07;22.50;;;14.03;;
16593;SDS011;8410;52.532;13.336;2024-03-07T14:01:52;16.93;;;13.30;;
16593;SDS011;8410;52.532;13.336;2024-03-07T14:04:40;16.63;;;13.13;;
16593;SDS011;8410;52.532;13.336;2024-03-07T14:07:25;17.57;;;14.27;;
16593;SDS011;8410;52.532;13.336;2024-03-07T14:16:28;20.03;;;13.63;;
16593;SDS011;8410;52.532;13.336;2024-03-07T14:19:43;13.97;;;12.07;;
16593;SDS011;8410;52.532;13.336;2024-03-07T14:25:43;17.97;;;15.67;;
16593;SDS011;8410;52.532;13.336;2024-03-07T14:31:31;14.67;;;12.97;;
16593;SDS011;8410;52.532;13.336;2024-03-07T14:34:04;15.10;;;12.93;;
16593;SDS011;8410;52.532;13.336;2024-03-07T14:36:40;15.07;;;13.47;;
16593;SDS011;8410;52.532;13.336;2024-03-07T14:39:11;20.43;;;15.93;;
16593;SDS011;8410;52.532;13.336;2024-03-07T14:41:42;18.13;;;12.30;;
16593;SDS011;8410;52.532;13.336;2024-03-07T14:44:15;16.73;;;13.63;;
16593;SDS011;8410;52.532;13.336;2024-03-07T14:46:46;18.37;;;15.40;;